Time;durP1;ratioP1;P1;durP2;ratioP2;P2;SDS_P1;SDS_P2;PMS_P1;PMS_P2;Temp;Humidity;BMP_temperature;BMP_pressure;BME280_temperature;BME280_humidity;BME280_pressure;Samples;Min_cycle;Max_cycle;Signal;HPM_P1;HPM_P2
2021/07/20 00:01:27;;;;;;;6.32;3.63;;;19.30;78.90;;;;;;5053628;28;20053;-77
2021/07/20 00:04:13;;;;;;;5.35;3.20;;;19.30;78.90;;;;;;5046629;28;20034;-78
2021/07/20 00:06:59;;;;;;;5.00;3.47;;;19.30;78.70;;;;;;5021251;28;20049;-77
2021/07/20 00:09:45;;;;;;;7.80;3.60;;;19.30;78.50;;;;;;5047654;28;20090;-78
2021/07/20 00:12:31;;;;;;;5.65;3.25;;;19.40;78.50;;;;;;5051250;28;20416;-77
2021/07/20 00:15:17;;;;;;;7.20;3.95;;;19.40;78.40;;;;;;5052856;28;20024;-77
2021/07/20 00:18:12;;;;;;;4.82;3.67;;;19.50;78.40;;;;;;5055057;28;20025;-77
2021/07/20 00:20:57;;;;;;;5.97;3.03;;;19.50;78.40;;;;;;5033538;28;20029;-76
2021/07/20 00:23:43;;;;;;;7.80;3.53;;;19.50;78.30;;;;;;5036854;28;20104;-76
2021/07/20 00:26:29;;;;;;;8.55;4.05;;;19.50;78.20;;;;;;5055364;28;20064;-78
2021/07/20 00:29:15;;;;;;;4.47;2.80;;;19.60;78.40;;;;;;5052437;28;20630;-77
2021/07/20 00:32:01;;;;;;;4.57;2.88;;;19.60;78.10;;;;;;5054849;28;20465;-79
2021/07/20 00:34:47;;;;;;;5.50;3.45;;;19.60;77.90;;;;;;5052172;28;20025;-78
2021/07/20 00:37:33;;;;;;;6.55;2.78;;;19.60;77.70;;;;;;5056022;28;20032;-81
2021/07/20 00:40:20;;;;;;;4.55;2.72;;;19.60;77.50;;;;;;5052994;28;20443;-80
2021/07/20 00:43:06;;;;;;;5.60;2.85;;;19.70;77.30;;;;;;5053028;28;20419;-82
2021/07/20 00:45:52;;;;;;;4.68;3.13;;;19.70;77.20;;;;;;5035448;28;20116;-81
2021/07/20 00:48:38;;;;;;;4.57;2.97;;;19.70;77.00;;;;;;5037475;28;20485;-80
2021/07/20 00:51:24;;;;;;;5.18;2.80;;;19.70;77.10;;;;;;5053149;28;20085;-82
2021/07/20 00:54:10;;;;;;;6.20;3.10;;;19.70;77.10;;;;;;5049273;28;20079;-84
2021/07/20 00:56:57;;;;;;;7.07;2.80;;;19.70;77.10;;;;;;5049588;28;20155;-80
2021/07/20 00:59:44;;;;;;;4.65;2.78;;;19.70;77.00;;;;;;5052651;28;20030;-80
2021/07/20 01:02:30;;;;;;;4.15;3.03;;;19.80;76.70;;;;;;5054239;28;20563;-81
2021/07/20 01:05:20;;;;;;;4.82;3.13;;;19.80;76.50;;;;;;5052877;28;20412;-81
2021/07/20 01:08:06;;;;;;;6.25;3.38;;;19.70;76.40;;;;;;5053187;28;20531;-80
2021/07/20 01:10:52;;;;;;;4.85;2.78;;;19.80;76.40;;;;;;5053521;28;20025;-86
2021/07/20 01:13:39;;;;;;;4.57;3.05;;;19.80;76.30;;;;;;5053803;28;20029;-85
2021/07/20 01:16:26;;;;;;;3.97;2.85;;;19.80;76.50;;;;;;5046512;28;20456;-84
2021/07/20 01:18:52;;;;;;;5.65;3.08;;;19.80;76.40;;;;;;5052159;28;20048;-83
2021/07/20 01:21:37;;;;;;;;;;;19.80;76.40;;;;;;5035517;28;20067;-86
2021/07/20 01:24:21;;;;;;;5.05;2.60;;;19.80;76.30;;;;;;5035250;28;19956;-87
2021/07/20 01:27:05;;;;;;;5.22;3.25;;;19.80;76.40;;;;;;5039581;28;20032;-84
2021/07/20 01:29:51;;;;;;;5.20;2.67;;;19.80;76.40;;;;;;5049396;28;20032;-86
2021/07/20 01:32:36;;;;;;;4.25;2.55;;;19.80;76.30;;;;;;5034067;28;20099;-86
2021/07/20 01:35:22;;;;;;;6.07;2.97;;;19.90;76.40;;;;;;5041839;28;20122;-85
2021/07/20 01:38:08;;;;;;;3.83;2.92;;;19.80;76.10;;;;;;5054630;28;20538;-85
2021/07/20 01:40:57;;;;;;;4.07;2.20;;;19.80;75.90;;;;;;5052755;28;20044;-78
2021/07/20 01:43:52;;;;;;;5.70;2.95;;;19.80;75.90;;;;;;5053418;28;20040;-81
2021/07/20 01:46:38;;;;;;;3.80;2.50;;;19.80;75.60;;;;;;5047651;28;20103;-80
2021/07/20 01:49:19;;;;;;;4.30;2.78;;;19.80;75.80;;;;;;5037448;28;20052;-81
2021/07/20 01:52:04;;;;;;;6.50;2.72;;;19.80;75.50;;;;;;5042658;28;20048;-80
2021/07/20 01:54:50;;;;;;;5.95;3.40;;;19.80;75.60;;;;;;5033135;28;20062;-81
2021/07/20 01:57:34;;;;;;;4.07;2.65;;;19.80;75.60;;;;;;5051375;28;20043;-82
2021/07/20 02:00:19;;;;;;;4.60;2.38;;;19.80;75.30;;;;;;5051965;28;20032;-81
2021/07/20 02:09:01;;;;;;;7.03;3.03;;;19.80;75.70;;;;;;5032718;28;20041;-79
2021/07/20 02:11:46;;;;;;;4.65;2.85;;;19.70;75.20;;;;;;5039412;28;20047;-80
2021/07/20 02:14:39;;;;;;;5.47;3.20;;;19.70;75.40;;;;;;5051720;28;20055;-79
2021/07/20 02:17:24;;;;;;;5.72;3.17;;;19.70;74.90;;;;;;5050521;28;20044;-79
2021/07/20 02:20:15;;;;;;;5.53;3.22;;;19.70;75.20;;;;;;5052704;28;20044;-78
2021/07/20 02:22:59;;;;;;;4.18;3.22;;;19.60;74.60;;;;;;5050556;28;20079;-77
2021/07/20 02:25:46;;;;;;;5.75;3.22;;;19.60;75.20;;;;;;5052330;28;20071;-77
2021/07/20 02:28:33;;;;;;;5.38;3.35;;;19.60;75.30;;;;;;5036956;28;20408;-78
2021/07/20 02:31:19;;;;;;;5.20;3.10;;;19.60;75.40;;;;;;5050675;28;20074;-77
2021/07/20 02:34:04;;;;;;;5.10;3.20;;;19.50;75.60;;;;;;5052032;28;20396;-78
2021/07/20 02:36:49;;;;;;;4.00;2.45;;;19.50;75.40;;;;;;5054286;28;20040;-79
2021/07/20 02:39:35;;;;;;;5.18;2.90;;;19.40;75.50;;;;;;5055887;28;20040;-78
2021/07/20 02:42:21;;;;;;;5.53;2.47;;;19.40;75.60;;;;;;5054347;28;20451;-78
2021/07/20 02:45:07;;;;;;;5.82;2.78;;;19.40;75.70;;;;;;5040665;28;20091;-78
2021/07/20 02:47:52;;;;;;;3.80;2.67;;;19.40;75.80;;;;;;5040473;28;20047;-78
2021/07/20 02:50:37;;;;;;;4.75;2.58;;;19.50;75.70;;;;;;5055169;28;20071;-79
2021/07/20 02:53:22;;;;;;;;;;;19.50;75.80;;;;;;5055117;28;20097;-79
2021/07/20 02:56:09;;;;;;;6.43;2.40;;;19.50;75.60;;;;;;5053641;28;20356;-78
2021/07/20 02:58:59;;;;;;;4.43;2.33;;;19.40;75.60;;;;;;5055484;28;20032;-84
2021/07/20 03:01:44;;;;;;;6.32;2.53;;;19.40;75.70;;;;;;5053855;28;20432;-81
2021/07/20 03:04:28;;;;;;;5.53;3.03;;;19.30;75.60;;;;;;5055448;28;20072;-83
2021/07/20 03:07:18;;;;;;;3.60;2.33;;;19.30;75.90;;;;;;5053589;28;20056;-82
2021/07/20 03:10:03;;;;;;;4.63;2.28;;;19.20;76.00;;;;;;5055006;28;20532;-79
2021/07/20 03:12:47;;;;;;;;;;;19.20;76.10;;;;;;5053141;28;20504;-79
2021/07/20 03:15:33;;;;;;;5.80;2.60;;;19.30;75.80;;;;;;5053892;28;19954;-80
2021/07/20 03:18:18;;;;;;;5.40;2.53;;;19.30;76.10;;;;;;5052329;28;20044;-81
2021/07/20 03:21:03;;;;;;;6.82;3.17;;;19.30;76.20;;;;;;5053766;28;20143;-85
2021/07/20 03:23:48;;;;;;;;;;;19.30;76.10;;;;;;5055594;28;20039;-82
2021/07/20 03:26:34;;;;;;;6.75;2.33;;;19.20;76.10;;;;;;5053153;28;20023;-76
2021/07/20 03:29:21;;;;;;;4.93;2.40;;;19.20;76.50;;;;;;5054978;28;20120;-85
2021/07/20 03:32:08;;;;;;;5.55;2.78;;;19.20;76.50;;;;;;5052967;28;20048;-77
2021/07/20 03:34:53;;;;;;;5.15;3.00;;;19.20;76.40;;;;;;5054876;28;20155;-84
2021/07/20 03:37:37;;;;;;;4.03;2.25;;;19.30;76.50;;;;;;5053024;28;20040;-78
2021/07/20 03:40:24;;;;;;;5.60;2.50;;;19.20;76.30;;;;;;5054253;28;20121;-79
2021/07/20 03:43:08;;;;;;;6.20;2.65;;;19.20;76.30;;;;;;5052699;28;20035;-79
2021/07/20 03:45:55;;;;;;;5.47;2.50;;;19.20;76.30;;;;;;5052828;28;20094;-77
2021/07/20 03:48:40;;;;;;;6.35;2.70;;;19.20;76.20;;;;;;5034967;28;20409;-76
2021/07/20 03:51:25;;;;;;;6.30;2.70;;;19.20;76.30;;;;;;5051550;28;20052;-74
2021/07/20 03:54:10;;;;;;;5.18;2.58;;;19.10;76.50;;;;;;5054360;28;20086;-76
2021/07/20 03:56:58;;;;;;;5.72;2.55;;;19.00;76.70;;;;;;5044587;28;20072;-75
2021/07/20 03:59:45;;;;;;;4.15;2.65;;;19.00;77.60;;;;;;5033456;28;20523;-75
2021/07/20 04:02:44;;;;;;;4.75;2.70;;;18.90;77.70;;;;;;5046298;28;20025;-74
2021/07/20 04:05:30;;;;;;;5.45;2.33;;;19.00;78.00;;;;;;5052421;28;20028;-74
2021/07/20 04:08:19;;;;;;;4.30;2.30;;;19.00;77.80;;;;;;5052841;28;20103;-75
2021/07/20 04:11:06;;;;;;;5.82;2.63;;;19.10;77.50;;;;;;5050369;28;20040;-75
2021/07/20 04:13:52;;;;;;;5.25;2.35;;;19.10;77.60;;;;;;5052695;28;20036;-74
2021/07/20 04:16:39;;;;;;;4.75;2.60;;;19.10;78.10;;;;;;5050855;28;20393;-75
2021/07/20 04:19:25;;;;;;;6.00;3.05;;;19.10;78.30;;;;;;5052977;28;20117;-75
2021/07/20 04:22:12;;;;;;;6.10;2.75;;;19.10;78.00;;;;;;5051971;28;20041;-75
2021/07/20 04:24:59;;;;;;;3.42;2.30;;;19.20;78.40;;;;;;5051887;28;20104;-76
2021/07/20 04:27:46;;;;;;;5.53;3.03;;;19.20;78.40;;;;;;5050410;28;20025;-75
2021/07/20 04:30:39;;;;;;;9.70;3.55;;;19.30;78.00;;;;;;5052979;28;20058;-74
2021/07/20 04:33:30;;;;;;;3.92;2.40;;;19.20;78.30;;;;;;5038434;28;20033;-75
2021/07/20 04:36:16;;;;;;;7.05;3.10;;;19.30;78.50;;;;;;5035449;28;20025;-74
2021/07/20 04:39:04;;;;;;;6.72;3.10;;;19.30;78.50;;;;;;5032120;28;20029;-74
2021/07/20 04:41:50;;;;;;;5.32;2.85;;;19.40;78.70;;;;;;5047836;28;20440;-74
2021/07/20 04:44:37;;;;;;;4.95;2.50;;;19.50;79.20;;;;;;5051221;28;20120;-75
2021/07/20 04:47:23;;;;;;;4.93;3.03;;;19.50;78.70;;;;;;5049795;28;20029;-75
2021/07/20 04:50:11;;;;;;;4.65;2.67;;;19.60;78.50;;;;;;5036132;28;20445;-76
2021/07/20 04:52:59;;;;;;;4.55;3.20;;;19.60;78.70;;;;;;5050577;28;20037;-75
2021/07/20 04:55:48;;;;;;;6.05;2.80;;;19.60;78.70;;;;;;5033551;28;20033;-76
2021/07/20 04:58:34;;;;;;;6.47;3.25;;;19.60;79.50;;;;;;5035446;28;20468;-76
2021/07/20 05:01:20;;;;;;;6.10;3.40;;;19.60;79.20;;;;;;5051737;28;20017;-76
2021/07/20 05:04:08;;;;;;;4.82;3.03;;;19.70;79.00;;;;;;5052296;28;20071;-77
2021/07/20 05:06:54;;;;;;;5.28;2.67;;;19.80;78.80;;;;;;5040220;28;20040;-75
2021/07/20 05:09:41;;;;;;;5.20;2.70;;;19.80;78.80;;;;;;5053620;28;20024;-78
2021/07/20 05:12:27;;;;;;;4.32;2.80;;;19.90;78.70;;;;;;5047603;28;20037;-77
2021/07/20 05:15:15;;;;;;;5.30;2.92;;;19.90;78.80;;;;;;5051292;28;20033;-75
2021/07/20 05:18:02;;;;;;;7.15;3.03;;;20.00;78.70;;;;;;5050408;28;20052;-75
2021/07/20 05:20:50;;;;;;;5.75;3.40;;;20.00;78.70;;;;;;5050843;28;20033;-74
2021/07/20 05:23:39;;;;;;;9.27;3.00;;;20.00;78.70;;;;;;5041485;28;20552;-76
2021/07/20 05:26:26;;;;;;;7.68;3.67;;;20.10;78.40;;;;;;5050349;28;20028;-76
2021/07/20 05:29:17;;;;;;;6.10;2.97;;;20.10;78.60;;;;;;5037985;28;20389;-75
2021/07/20 05:32:04;;;;;;;6.35;3.50;;;20.20;78.10;;;;;;5051047;28;20098;-75
2021/07/20 05:34:50;;;;;;;8.77;3.10;;;20.20;78.20;;;;;;5052135;28;20512;-74
2021/07/20 05:37:36;;;;;;;4.40;2.42;;;20.30;78.40;;;;;;5031460;28;20088;-75
2021/07/20 05:40:23;;;;;;;5.00;2.70;;;20.30;78.10;;;;;;5040310;28;20036;-76
2021/07/20 05:43:10;;;;;;;7.13;3.13;;;20.40;78.00;;;;;;5050482;28;20032;-76
2021/07/20 05:46:02;;;;;;;7.38;4.22;;;20.40;78.70;;;;;;5051089;28;20033;-77
2021/07/20 05:48:49;;;;;;;6.07;3.05;;;20.40;78.20;;;;;;5033613;28;20061;-76
2021/07/20 05:51:37;;;;;;;;;;;20.50;78.60;;;;;;5045956;28;20338;-76
2021/07/20 05:54:22;;;;;;;6.82;2.78;;;20.50;78.40;;;;;;5052087;28;19912;-75
2021/07/20 05:57:08;;;;;;;5.10;2.80;;;20.50;79.00;;;;;;5050524;28;20048;-75
2021/07/20 05:59:53;;;;;;;5.72;3.22;;;20.60;78.50;;;;;;5052289;28;20048;-76
2021/07/20 06:02:39;;;;;;;4.88;3.20;;;20.70;78.50;;;;;;5050423;28;20059;-77
2021/07/20 06:05:27;;;;;;;6.10;2.78;;;20.80;77.70;;;;;;5036939;28;20032;-77
2021/07/20 06:08:16;;;;;;;6.45;2.90;;;20.90;78.40;;;;;;5049479;28;20124;-77
2021/07/20 06:11:04;;;;;;;4.93;3.05;;;21.00;78.40;;;;;;5049569;28;20518;-76
2021/07/20 06:13:51;;;;;;;5.68;2.92;;;21.00;78.50;;;;;;5032127;28;20076;-77
2021/07/20 06:16:38;;;;;;;7.22;4.00;;;21.10;78.40;;;;;;5037233;28;20116;-77
2021/07/20 06:19:22;;;;;;;9.38;3.53;;;21.10;78.00;;;;;;5036803;28;20039;-77
2021/07/20 06:22:09;;;;;;;8.10;4.00;;;21.10;78.60;;;;;;5048153;28;20802;-74
2021/07/20 06:24:55;;;;;;;4.75;3.05;;;21.20;78.20;;;;;;5045312;28;20056;-73
2021/07/20 06:27:42;;;;;;;13.05;5.47;;;21.10;78.50;;;;;;5035639;28;20040;-73
2021/07/20 06:30:26;;;;;;;6.28;3.42;;;21.10;78.50;;;;;;5049182;28;20214;-74
2021/07/20 06:33:13;;;;;;;9.95;3.40;;;21.10;78.20;;;;;;5049945;28;20048;-74
2021/07/20 06:35:58;;;;;;;5.35;3.35;;;21.10;77.40;;;;;;5046178;28;20044;-76
2021/07/20 06:38:42;;;;;;;4.85;2.95;;;21.00;76.90;;;;;;5039781;28;20443;-76
2021/07/20 06:41:26;;;;;;;5.90;3.00;;;21.00;77.60;;;;;;5035166;28;20056;-76
2021/07/20 06:44:11;;;;;;;5.30;3.22;;;21.00;77.60;;;;;;5050058;28;20094;-74
2021/07/20 06:46:58;;;;;;;6.65;3.03;;;21.00;77.80;;;;;;5049521;28;20051;-74
2021/07/20 06:49:46;;;;;;;9.05;3.30;;;20.90;77.50;;;;;;5050384;28;20495;-74
2021/07/20 06:52:30;;;;;;;4.65;3.00;;;20.90;76.90;;;;;;5048795;28;20087;-72
2021/07/20 06:55:15;;;;;;;4.70;3.28;;;21.00;77.10;;;;;;5050771;28;20091;-72
2021/07/20 06:58:02;;;;;;;5.68;2.92;;;21.00;76.90;;;;;;5043717;28;20055;-73
2021/07/20 07:00:48;;;;;;;4.50;2.95;;;21.00;77.10;;;;;;5033509;28;20120;-73
2021/07/20 07:04:00;;;;;;;5.85;2.65;;;20.90;76.80;;;;;;5040299;28;20114;-74
2021/07/20 07:06:49;;;;;;;11.05;2.53;;;20.90;75.10;;;;;;5028962;28;20086;-75
2021/07/20 07:09:33;;;;;;;5.05;2.17;;;21.00;75.40;;;;;;5053782;28;20043;-76
2021/07/20 07:12:18;;;;;;;4.60;2.70;;;21.00;75.30;;;;;;5028947;28;20420;-76
2021/07/20 07:15:04;;;;;;;5.28;2.30;;;21.10;75.40;;;;;;5048272;28;20090;-77
2021/07/20 07:17:50;;;;;;;5.60;2.40;;;21.30;73.30;;;;;;5043001;28;20046;-76
2021/07/20 07:20:19;;;;;;;5.95;2.47;;;21.30;73.00;;;;;;5046646;28;20377;-76
2021/07/20 07:22:45;;;;;;;5.70;2.45;;;21.30;72.80;;;;;;5051761;28;20021;-76
2021/07/20 07:25:12;;;;;;;3.80;2.45;;;21.40;72.00;;;;;;5051517;28;20035;-76
2021/07/20 07:27:39;;;;;;;4.47;2.63;;;21.40;73.30;;;;;;5059829;28;20033;-77
2021/07/20 07:30:07;;;;;;;5.43;2.75;;;21.40;72.90;;;;;;5052662;28;20032;-75
2021/07/20 07:32:33;;;;;;;4.53;2.85;;;21.40;72.00;;;;;;5051675;28;20112;-76
2021/07/20 07:34:59;;;;;;;4.78;2.85;;;21.30;71.00;;;;;;5054502;28;20032;-76
2021/07/20 07:37:28;;;;;;;5.13;2.47;;;21.40;71.20;;;;;;5050518;28;20025;-76
2021/07/20 07:39:57;;;;;;;4.03;2.45;;;21.50;71.60;;;;;;5047416;28;20358;-77
2021/07/20 07:42:24;;;;;;;6.13;2.70;;;21.50;70.10;;;;;;5034327;28;20033;-76
2021/07/20 07:44:52;;;;;;;3.72;2.78;;;21.60;70.60;;;;;;5051202;28;20063;-77
2021/07/20 07:47:18;;;;;;;6.20;2.25;;;21.70;70.80;;;;;;5050313;28;20059;-77
2021/07/20 07:49:45;;;;;;;5.38;2.75;;;21.80;70.40;;;;;;5050766;28;20053;-76
2021/07/20 07:52:15;;;;;;;4.35;2.80;;;22.00;68.50;;;;;;5055852;28;20037;-76
2021/07/20 07:54:41;;;;;;;4.47;2.30;;;22.00;67.70;;;;;;5034238;28;20037;-76
2021/07/20 07:57:07;;;;;;;5.55;2.67;;;22.00;68.30;;;;;;5047760;28;20028;-77
2021/07/20 07:59:34;;;;;;;3.72;2.28;;;22.00;67.70;;;;;;5047399;28;20069;-77
2021/07/20 08:02:03;;;;;;;5.05;2.28;;;22.20;67.60;;;;;;5051023;28;20439;-76
2021/07/20 08:04:30;;;;;;;4.47;2.20;;;22.20;66.90;;;;;;5043094;28;20104;-75
2021/07/20 08:06:58;;;;;;;5.22;2.53;;;22.30;66.80;;;;;;5044949;28;20052;-75
2021/07/20 08:09:46;;;;;;;4.30;2.72;;;22.30;65.60;;;;;;5043536;28;20032;-75
2021/07/20 08:12:32;;;;;;;7.68;2.60;;;22.50;66.30;;;;;;5048869;28;20060;-75
2021/07/20 08:14:58;;;;;;;3.25;2.20;;;22.50;62.90;;;;;;5050738;28;20107;-75
2021/07/20 08:17:25;;;;;;;4.40;2.55;;;22.40;64.20;;;;;;5045253;28;20171;-75
2021/07/20 08:19:52;;;;;;;3.38;2.47;;;22.50;63.40;;;;;;5048163;28;20078;-76
2021/07/20 08:22:19;;;;;;;4.47;2.53;;;22.50;62.50;;;;;;5051201;28;20025;-74
2021/07/20 08:24:54;;;;;;;4.07;2.53;;;22.50;63.50;;;;;;5050979;28;20068;-74
2021/07/20 08:27:48;;;;;;;3.95;2.55;;;22.50;61.40;;;;;;5047610;28;20021;-75
2021/07/20 08:30:15;;;;;;;5.40;2.40;;;22.40;61.10;;;;;;5042732;28;20041;-75
2021/07/20 08:32:48;;;;;;;4.40;2.47;;;22.40;62.30;;;;;;5049702;28;20045;-72
2021/07/20 08:35:20;;;;;;;3.72;2.53;;;22.50;61.80;;;;;;5054974;28;20170;-77
2021/07/20 08:37:48;;;;;;;4.63;2.80;;;22.60;61.00;;;;;;5049787;28;20040;-78
2021/07/20 08:40:28;;;;;;;4.97;2.97;;;22.70;60.30;;;;;;5049951;28;20029;-79
2021/07/20 08:43:19;;;;;;;4.93;2.60;;;22.70;58.80;;;;;;5050085;28;20465;-78
2021/07/20 08:46:08;;;;;;;3.80;2.60;;;22.80;59.10;;;;;;5051322;28;20095;-78
2021/07/20 08:48:55;;;;;;;3.95;2.30;;;22.90;59.60;;;;;;5042011;28;20445;-78
2021/07/20 08:51:33;;;;;;;3.55;2.50;;;22.90;58.90;;;;;;5044629;28;20032;-78
2021/07/20 08:54:06;;;;;;;5.55;3.28;;;22.90;58.50;;;;;;5032478;28;20032;-78
2021/07/20 08:56:37;;;;;;;4.68;2.42;;;22.90;58.40;;;;;;5050214;28;20063;-78
2021/07/20 08:59:07;;;;;;;4.40;2.08;;;22.90;59.60;;;;;;5050731;28;20025;-79
2021/07/20 09:01:42;;;;;;;5.53;2.78;;;23.00;59.70;;;;;;5050456;28;20035;-79
2021/07/20 09:04:17;;;;;;;3.78;2.55;;;23.10;60.90;;;;;;5048769;28;20021;-78
2021/07/20 09:06:45;;;;;;;;;;;23.30;57.90;;;;;;5050155;28;20053;-79
2021/07/20 09:09:28;;;;;;;5.72;2.85;;;23.40;57.10;;;;;;5046171;28;19908;-79
2021/07/20 09:12:06;;;;;;;4.32;2.70;;;23.40;56.60;;;;;;5037843;28;20045;-79
2021/07/20 09:14:35;;;;;;;4.13;2.75;;;23.40;56.20;;;;;;5032592;28;20071;-76
2021/07/20 09:17:28;;;;;;;4.25;2.63;;;23.50;55.70;;;;;;5053279;28;20025;-80
2021/07/20 09:20:17;;;;;;;6.57;3.05;;;23.50;56.70;;;;;;5043229;28;20047;-65
2021/07/20 09:23:13;;;;;;;5.05;2.80;;;23.60;53.40;;;;;;5045230;28;20040;-64
2021/07/20 09:26:11;;;;;;;8.95;3.15;;;23.60;53.20;;;;;;5046595;28;20075;-65
2021/07/20 09:29:13;;;;;;;4.80;2.92;;;23.60;54.30;;;;;;5044466;28;20519;-65
2021/07/20 09:32:09;;;;;;;7.07;2.40;;;23.60;54.90;;;;;;5042498;28;20048;-64
2021/07/20 09:35:17;;;;;;;4.93;2.97;;;23.60;55.50;;;;;;5048173;28;20108;-64
2021/07/20 09:38:28;;;;;;;4.95;2.90;;;23.70;56.00;;;;;;5046395;28;20071;-65
2021/07/20 09:41:13;;;;;;;4.43;2.85;;;23.70;56.70;;;;;;5043442;28;20123;-64
2021/07/20 09:44:07;;;;;;;12.27;3.33;;;23.70;57.30;;;;;;5039717;28;20137;-63
2021/07/20 09:46:58;;;;;;;;;;;23.70;58.20;;;;;;5048900;28;20793;-63
2021/07/20 09:49:52;;;;;;;13.30;3.28;;;23.80;58.30;;;;;;5049109;28;20338;-63
2021/07/20 09:52:42;;;;;;;5.20;2.83;;;23.90;58.40;;;;;;5048276;28;20107;-63
2021/07/20 09:55:54;;;;;;;6.55;3.53;;;24.00;58.00;;;;;;5042419;28;20032;-64
2021/07/20 09:59:09;;;;;;;5.00;3.00;;;24.20;56.30;;;;;;5050427;28;20051;-63
2021/07/20 10:01:58;;;;;;;4.72;2.67;;;24.20;56.50;;;;;;5045020;28;20122;-64
2021/07/20 10:04:51;;;;;;;4.25;2.65;;;24.20;57.50;;;;;;5046647;28;20176;-64
2021/07/20 10:07:41;;;;;;;4.32;2.92;;;24.30;56.80;;;;;;5043370;28;20035;-65
2021/07/20 10:10:47;;;;;;;6.90;2.63;;;24.30;56.70;;;;;;5048265;28;20690;-64
2021/07/20 10:13:33;;;;;;;6.60;3.00;;;24.30;56.20;;;;;;5048841;28;20121;-64
2021/07/20 10:16:39;;;;;;;4.75;2.80;;;24.40;56.10;;;;;;5049968;28;20074;-64
2021/07/20 10:19:39;;;;;;;4.47;2.70;;;24.50;56.60;;;;;;5071571;28;20116;-64
2021/07/20 10:22:36;;;;;;;6.25;2.72;;;24.50;55.20;;;;;;5056474;28;20515;-64
2021/07/20 10:25:42;;;;;;;7.05;2.92;;;24.50;54.50;;;;;;5036115;28;20047;-64
2021/07/20 10:28:32;;;;;;;8.05;3.22;;;24.50;55.50;;;;;;5050159;28;20028;-65
2021/07/20 10:31:29;;;;;;;4.30;2.70;;;24.50;54.80;;;;;;5049337;28;20041;-64
2021/07/20 10:34:17;;;;;;;5.63;2.80;;;24.60;56.00;;;;;;5051452;28;20028;-65
2021/07/20 10:37:14;;;;;;;11.18;3.55;;;24.60;54.90;;;;;;5049683;28;20035;-64
2021/07/20 10:40:04;;;;;;;3.63;2.30;;;24.70;54.70;;;;;;5048617;28;20036;-64
2021/07/20 10:43:03;;;;;;;3.92;2.13;;;24.70;54.70;;;;;;5048962;28;20044;-64
2021/07/20 10:45:49;;;;;;;5.03;2.70;;;24.70;54.80;;;;;;5051092;28;20032;-66
2021/07/20 10:48:40;;;;;;;6.35;2.40;;;24.70;55.20;;;;;;5030573;28;20962;-64
2021/07/20 10:51:31;;;;;;;4.32;2.85;;;24.60;55.10;;;;;;5033683;28;20087;-64
2021/07/20 10:54:30;;;;;;;3.92;2.70;;;24.60;56.00;;;;;;5051080;28;20379;-64
2021/07/20 10:57:22;;;;;;;3.08;1.90;;;24.50;55.90;;;;;;5052700;28;20105;-64
2021/07/20 11:00:11;;;;;;;5.60;2.92;;;24.50;56.20;;;;;;5054862;28;20074;-64
2021/07/20 11:03:20;;;;;;;4.13;2.42;;;24.50;55.80;;;;;;5052955;28;20082;-64
2021/07/20 11:06:06;;;;;;;7.50;2.70;;;24.50;55.60;;;;;;5050460;28;20055;-64
2021/07/20 11:08:54;;;;;;;4.25;2.88;;;24.50;56.90;;;;;;5054781;28;20036;-64
2021/07/20 11:11:47;;;;;;;4.05;2.30;;;24.50;56.40;;;;;;5052134;28;20522;-64
2021/07/20 11:14:46;;;;;;;5.18;2.60;;;24.40;56.20;;;;;;5054599;28;20040;-64
2021/07/20 11:17:33;;;;;;;7.15;2.60;;;24.40;56.40;;;;;;5053048;28;20039;-64
2021/07/20 11:20:20;;;;;;;4.35;2.40;;;24.40;56.50;;;;;;5053516;28;20031;-64
2021/07/20 11:23:05;;;;;;;6.40;2.33;;;24.30;56.30;;;;;;5052285;28;20036;-64
2021/07/20 11:25:52;;;;;;;5.55;2.47;;;24.30;56.70;;;;;;5039008;28;20028;-64
2021/07/20 11:28:43;;;;;;;4.65;2.90;;;24.30;56.90;;;;;;5034051;28;20025;-64
2021/07/20 11:31:41;;;;;;;4.72;3.00;;;24.30;56.70;;;;;;5038261;28;20045;-64
2021/07/20 11:34:36;;;;;;;6.68;2.97;;;24.30;56.80;;;;;;5050872;28;20554;-64
2021/07/20 11:37:31;;;;;;;4.72;2.60;;;24.40;56.80;;;;;;5051725;28;20043;-64
2021/07/20 11:40:23;;;;;;;4.88;2.50;;;24.40;57.30;;;;;;5052212;28;20485;-65
2021/07/20 11:43:16;;;;;;;5.30;2.70;;;24.40;56.70;;;;;;5051568;28;20698;-64
2021/07/20 11:46:06;;;;;;;9.75;3.47;;;24.50;57.00;;;;;;5051479;28;20399;-64
2021/07/20 11:48:54;;;;;;;6.80;2.30;;;24.50;57.60;;;;;;5052911;28;20047;-64
2021/07/20 11:51:49;;;;;;;5.35;2.30;;;24.60;57.50;;;;;;5051677;28;20412;-65
2021/07/20 11:54:53;;;;;;;5.53;2.60;;;24.60;57.60;;;;;;5053252;28;20025;-64
2021/07/20 11:57:55;;;;;;;4.22;2.20;;;24.60;57.10;;;;;;5051637;28;20041;-64
2021/07/20 12:01:06;;;;;;;3.88;2.63;;;24.70;57.20;;;;;;5052264;28;20037;-64
2021/07/20 12:04:17;;;;;;;5.80;2.70;;;24.70;56.90;;;;;;5045889;28;20064;-64
2021/07/20 12:07:33;;;;;;;8.55;3.35;;;24.70;57.70;;;;;;5049404;28;20037;-65
2021/07/20 12:10:52;;;;;;;5.60;2.38;;;24.80;57.50;;;;;;5053821;28;20048;-64
2021/07/20 12:13:40;;;;;;;5.00;2.75;;;24.80;57.60;;;;;;5033567;28;20116;-64
2021/07/20 12:16:25;;;;;;;7.55;2.60;;;24.70;58.20;;;;;;5036076;28;20082;-64
2021/07/20 12:19:13;;;;;;;5.60;3.10;;;24.60;58.60;;;;;;5052649;28;20032;-62
2021/07/20 12:22:07;;;;;;;5.85;2.70;;;24.40;59.10;;;;;;5050779;28;20025;-64
2021/07/20 12:24:54;;;;;;;5.32;2.72;;;24.30;59.60;;;;;;5052034;28;20044;-65
2021/07/20 12:27:40;;;;;;;7.13;2.75;;;24.30;60.00;;;;;;5051489;28;20083;-64
2021/07/20 12:30:27;;;;;;;4.00;2.60;;;24.30;59.90;;;;;;5051543;28;20029;-64
2021/07/20 12:33:14;;;;;;;4.85;2.67;;;24.20;60.10;;;;;;5050781;28;20075;-63
2021/07/20 12:36:03;;;;;;;4.70;2.50;;;24.20;60.60;;;;;;5050556;28;20113;-62
2021/07/20 12:39:07;;;;;;;3.90;2.42;;;24.20;60.90;;;;;;5034025;28;20022;-64
2021/07/20 12:41:54;;;;;;;5.07;2.50;;;24.20;60.60;;;;;;5039441;28;20025;-63
2021/07/20 12:44:40;;;;;;;5.65;2.55;;;24.20;61.70;;;;;;5053472;28;20029;-63
2021/07/20 12:47:26;;;;;;;3.95;2.35;;;24.10;61.10;;;;;;5049597;28;20036;-63
2021/07/20 12:50:14;;;;;;;6.05;2.50;;;24.10;61.30;;;;;;5052751;28;20049;-63
2021/07/20 12:53:00;;;;;;;4.57;2.70;;;24.10;61.50;;;;;;5050425;28;20068;-64
2021/07/20 12:55:46;;;;;;;5.70;2.60;;;24.20;61.60;;;;;;5052142;28;20044;-64
2021/07/20 12:58:32;;;;;;;7.68;3.33;;;24.20;61.80;;;;;;5053396;28;20055;-63
2021/07/20 13:01:22;;;;;;;5.50;3.15;;;24.20;61.80;;;;;;5049070;28;20018;-63
2021/07/20 13:04:08;;;;;;;3.92;2.38;;;24.20;62.50;;;;;;5033058;28;20083;-63
2021/07/20 13:06:55;;;;;;;3.55;2.30;;;24.20;62.60;;;;;;5040457;28;20033;-63
2021/07/20 13:09:43;;;;;;;3.33;2.30;;;24.30;62.90;;;;;;5051487;28;20036;-63
2021/07/20 13:12:29;;;;;;;4.47;2.42;;;24.30;62.90;;;;;;5050453;28;20383;-63
2021/07/20 13:15:22;;;;;;;4.40;2.45;;;24.30;63.50;;;;;;5052029;28;20374;-64
2021/07/20 13:18:12;;;;;;;5.53;2.78;;;24.30;62.90;;;;;;5035114;28;20512;-63
2021/07/20 13:20:57;;;;;;;3.05;2.40;;;24.30;62.90;;;;;;5032011;28;20457;-64
2021/07/20 13:23:43;;;;;;;5.25;2.33;;;24.30;62.70;;;;;;5032268;28;20068;-64
2021/07/20 13:26:30;;;;;;;3.65;2.20;;;24.30;62.30;;;;;;5037440;28;20078;-64
2021/07/20 13:29:14;;;;;;;5.20;2.58;;;24.30;62.00;;;;;;5049447;28;20031;-63
2021/07/20 13:32:06;;;;;;;4.03;2.67;;;24.30;62.00;;;;;;5049779;28;20036;-65
2021/07/20 13:34:51;;;;;;;4.05;2.50;;;24.20;61.70;;;;;;5050917;28;20055;-64
2021/07/20 13:37:36;;;;;;;4.90;2.70;;;24.20;62.00;;;;;;5050388;28;20090;-64
2021/07/20 13:40:21;;;;;;;4.72;2.50;;;24.30;62.20;;;;;;5051828;28;20048;-63
2021/07/20 13:43:05;;;;;;;4.20;2.30;;;24.30;62.50;;;;;;5050241;28;20035;-64
2021/07/20 13:45:50;;;;;;;4.00;2.70;;;24.40;62.50;;;;;;5036062;28;20065;-64
2021/07/20 13:48:42;;;;;;;6.10;2.95;;;24.40;63.10;;;;;;5046307;28;20087;-64
2021/07/20 13:51:29;;;;;;;6.57;2.60;;;24.40;62.90;;;;;;5047596;28;20124;-64
2021/07/20 13:54:06;;;;;;;6.80;3.10;;;24.50;62.90;;;;;;5057300;28;20057;-64
2021/07/20 13:56:51;;;;;;;5.22;2.35;;;24.70;62.60;;;;;;5041433;28;20059;-64
2021/07/20 13:59:21;;;;;;;5.70;2.47;;;24.90;62.30;;;;;;5045835;28;20037;-64
2021/07/20 14:01:47;;;;;;;3.42;2.58;;;24.90;61.80;;;;;;5040185;28;20083;-64
2021/07/20 14:04:15;;;;;;;4.85;2.78;;;25.00;61.50;;;;;;5047067;28;20021;-64
2021/07/20 14:06:42;;;;;;;5.50;3.25;;;24.90;61.30;;;;;;5040529;28;20568;-64
2021/07/20 14:09:10;;;;;;;5.22;2.55;;;24.90;61.30;;;;;;5048366;28;20522;-64
2021/07/20 14:11:36;;;;;;;4.57;2.83;;;24.90;62.10;;;;;;5047691;28;20033;-66
2021/07/20 14:14:03;;;;;;;4.85;2.85;;;24.80;61.70;;;;;;5047421;28;20525;-64
2021/07/20 14:16:30;;;;;;;6.60;3.00;;;24.80;61.20;;;;;;5041280;28;20596;-63
2021/07/20 14:18:57;;;;;;;5.85;3.20;;;24.60;61.50;;;;;;5036440;28;20036;-64
2021/07/20 14:21:31;;;;;;;6.95;3.13;;;24.50;62.70;;;;;;5048692;28;20025;-62
2021/07/20 14:24:07;;;;;;;;;;;24.70;62.10;;;;;;5048730;28;20488;-67
2021/07/20 14:26:40;;;;;;;5.60;3.53;;;24.80;61.80;;;;;;5043282;28;19963;-67
2021/07/20 14:29:11;;;;;;;5.63;2.60;;;24.80;61.20;;;;;;5045263;28;20065;-63